Time;durP1;ratioP1;P1;durP2;ratioP2;P2;SDS_P1;SDS_P2;PMS_P1;PMS_P2;Temp;Humidity;BMP_temperature;BMP_pressure;BME280_temperature;BME280_humidity;BME280_pressure;Samples;Min_cycle;Max_cycle;Signal;HPM_P1;HPM_P2
2023/02/02 00:01:20;;;;;;;3.63;1.67;;;3.00;99.90;;;;;;7401116;19;20332;-89
2023/02/02 00:03:49;;;;;;;2.90;1.60;;;3.00;99.90;;;;;;7402678;19;20336;-90
2023/02/02 00:06:19;;;;;;;4.97;1.60;;;3.00;99.90;;;;;;7408644;19;20312;-89
2023/02/02 00:08:46;;;;;;;2.95;1.58;;;3.00;99.90;;;;;;7410685;19;20366;-89
2023/02/02 00:11:12;;;;;;;3.58;1.60;;;3.00;99.90;;;;;;7412025;19;20699;-89
2023/02/02 00:13:38;;;;;;;5.25;1.88;;;3.10;99.90;;;;;;7409849;19;20301;-86
2023/02/02 00:16:25;;;;;;;3.40;1.90;;;3.10;99.90;;;;;;7403599;19;20329;-89
2023/02/02 00:18:52;;;;;;;3.13;1.83;;;3.10;99.90;;;;;;7306035;19;2004318;-88
2023/02/02 00:21:23;;;;;;;3.28;1.90;;;3.20;99.90;;;;;;7401501;19;20354;-90
2023/02/02 00:23:48;;;;;;;3.08;1.85;;;3.10;99.90;;;;;;7399176;19;20332;-89
2023/02/02 00:26:14;;;;;;;3.30;1.73;;;3.20;99.90;;;;;;7404742;19;20329;-90
2023/02/02 00:28:40;;;;;;;7.05;2.30;;;3.20;99.90;;;;;;7410286;19;20324;-87
2023/02/02 00:31:05;;;;;;;4.05;1.77;;;3.30;99.90;;;;;;7406635;19;20337;-89
2023/02/02 00:33:32;;;;;;;4.90;1.83;;;3.40;99.90;;;;;;7404312;19;20333;-87
2023/02/02 00:35:58;;;;;;;5.07;1.95;;;3.30;99.90;;;;;;7407817;19;20344;-88
2023/02/02 00:38:24;;;;;;;4.60;1.65;;;3.40;99.90;;;;;;7407683;19;20333;-88
2023/02/02 00:40:50;;;;;;;2.97;1.90;;;3.40;99.90;;;;;;7405481;19;20340;-86
2023/02/02 00:43:16;;;;;;;5.38;2.00;;;3.40;99.90;;;;;;7402976;19;20335;-87
2023/02/02 00:45:41;;;;;;;4.60;1.80;;;3.40;99.90;;;;;;7407203;19;20312;-85
2023/02/02 00:48:09;;;;;;;5.68;2.05;;;3.50;99.90;;;;;;7398206;19;20731;-86
2023/02/02 00:50:42;;;;;;;7.03;1.98;;;3.40;99.90;;;;;;7386124;19;21606;-87
2023/02/02 00:53:08;;;;;;;6.32;1.98;;;3.40;99.90;;;;;;7396157;19;20309;-84
2023/02/02 00:55:33;;;;;;;3.83;2.15;;;3.30;99.90;;;;;;7393484;19;20356;-88
2023/02/02 00:58:00;;;;;;;6.05;2.22;;;3.30;99.90;;;;;;7382660;19;20316;-82
2023/02/02 01:00:26;;;;;;;6.65;2.22;;;3.30;99.90;;;;;;7392390;19;20348;-92
2023/02/02 01:02:52;;;;;;;6.90;2.03;;;3.30;99.90;;;;;;7387768;19;20313;-90
2023/02/02 01:05:19;;;;;;;5.35;2.35;;;3.30;99.90;;;;;;7399742;19;20344;-86
2023/02/02 01:07:44;;;;;;;6.10;1.92;;;3.30;99.90;;;;;;7399842;19;20320;-87
2023/02/02 01:10:13;;;;;;;4.88;2.00;;;3.40;99.90;;;;;;7396669;19;20357;-87
2023/02/02 01:12:40;;;;;;;6.05;2.42;;;3.40;99.90;;;;;;7410086;19;20469;-87
2023/02/02 01:15:09;;;;;;;5.28;2.30;;;3.60;99.90;;;;;;7408365;19;20317;-87
2023/02/02 01:17:34;;;;;;;6.95;2.30;;;3.40;99.90;;;;;;7405030;19;20423;-90
2023/02/02 01:20:00;;;;;;;4.43;2.30;;;3.40;99.90;;;;;;7397894;19;20337;-88
2023/02/02 01:22:27;;;;;;;3.92;2.13;;;3.40;99.90;;;;;;7399217;19;20328;-91
2023/02/02 01:24:53;;;;;;;6.18;2.10;;;3.50;99.90;;;;;;7389297;19;20344;-87
2023/02/02 01:27:19;;;;;;;6.45;2.60;;;3.50;99.90;;;;;;7378628;19;20443;-91
2023/02/02 01:29:45;;;;;;;5.30;2.30;;;3.50;99.90;;;;;;7405894;19;20305;-89
2023/02/02 01:32:11;;;;;;;5.82;2.17;;;3.50;99.90;;;;;;7393922;19;20312;-89
2023/02/02 01:34:40;;;;;;;5.72;2.30;;;3.60;99.90;;;;;;7395004;19;20308;-93
2023/02/02 01:37:07;;;;;;;5.65;2.25;;;3.60;99.90;;;;;;7398034;19;20316;-89
2023/02/02 01:39:33;;;;;;;6.53;2.33;;;3.70;99.90;;;;;;7396637;19;20356;-91
2023/02/02 01:41:58;;;;;;;4.32;2.13;;;3.60;99.90;;;;;;7398047;19;20341;-89
2023/02/02 01:44:55;;;;;;;5.80;2.22;;;3.60;99.90;;;;;;7400871;19;20316;-87
2023/02/02 01:47:26;;;;;;;5.18;2.13;;;3.70;99.90;;;;;;7305847;19;2004327;-89
2023/02/02 01:49:53;;;;;;;6.25;2.05;;;3.70;99.90;;;;;;7384097;19;20320;-89
2023/02/02 01:52:20;;;;;;;7.20;2.38;;;3.60;99.90;;;;;;7404489;19;20324;-88
2023/02/02 01:54:48;;;;;;;5.07;2.00;;;3.70;99.90;;;;;;7411793;19;20320;-88
2023/02/02 01:57:20;;;;;;;5.77;2.20;;;3.60;99.90;;;;;;7404400;19;20681;-89
2023/02/02 01:59:45;;;;;;;5.43;2.40;;;3.70;99.90;;;;;;7306061;19;2004188;-88
2023/02/02 02:02:11;;;;;;;4.50;2.00;;;3.70;99.90;;;;;;7406810;19;20418;-86
2023/02/02 02:04:38;;;;;;;7.93;2.40;;;3.70;99.90;;;;;;7400565;19;20325;-92
2023/02/02 02:07:04;;;;;;;4.90;2.05;;;3.70;99.90;;;;;;7400243;19;20361;-87
2023/02/02 02:09:32;;;;;;;6.20;2.35;;;3.70;99.90;;;;;;7403859;19;20317;-93
2023/02/02 02:11:58;;;;;;;5.25;2.30;;;3.70;99.90;;;;;;7399085;19;20321;-89
2023/02/02 02:17:38;;;;;;;6.65;2.15;;;3.70;99.90;;;;;;7383959;19;20308;-89
2023/02/02 02:27:08;;;;;;;4.63;1.92;;;3.80;99.90;;;;;;7176368;19;2004780;-85
2023/02/02 02:30:31;;;;;;;6.10;2.25;;;3.80;99.90;;;;;;7300481;19;2004198;-89
2023/02/02 02:33:22;;;;;;;9.70;2.50;;;3.90;99.90;;;;;;7107944;19;2004392;-88
2023/02/02 02:36:16;;;;;;;4.18;2.40;;;3.90;99.90;;;;;;7309082;19;2003981;-93
2023/02/02 02:38:44;;;;;;;7.85;2.50;;;3.90;99.90;;;;;;7409348;19;20321;-87
2023/02/02 02:41:18;;;;;;;6.25;2.20;;;4.00;99.90;;;;;;7411717;19;20297;-89
2023/02/02 02:44:06;;;;;;;5.38;2.22;;;4.00;99.90;;;;;;7416253;19;20311;-86
2023/02/02 02:46:32;;;;;;;5.40;2.08;;;4.00;99.90;;;;;;7300174;19;2004176;-91
2023/02/02 02:48:58;;;;;;;6.10;2.50;;;4.00;99.90;;;;;;7409797;19;20344;-88
2023/02/02 02:51:54;;;;;;;6.13;1.83;;;4.00;99.90;;;;;;7408948;19;20332;-91
2023/02/02 02:54:36;;;;;;;3.67;2.15;;;4.10;99.90;;;;;;7303170;19;2004310;-89
2023/02/02 02:57:04;;;;;;;7.72;2.38;;;4.10;99.90;;;;;;7406416;19;20864;-92
2023/02/02 02:59:39;;;;;;;8.20;2.10;;;4.20;99.90;;;;;;7402746;19;20328;-90
2023/02/02 03:02:17;;;;;;;6.40;2.50;;;4.20;99.90;;;;;;7402220;19;20332;-87
2023/02/02 03:05:07;;;;;;;5.68;1.95;;;4.20;99.90;;;;;;7409953;19;20333;-92
2023/02/02 03:07:52;;;;;;;8.07;2.30;;;4.10;99.90;;;;;;7302175;19;2004389;-92
2023/02/02 03:10:18;;;;;;;8.73;2.10;;;4.10;99.90;;;;;;7294968;19;2004019;-88
2023/02/02 03:12:48;;;;;;;3.95;2.10;;;4.20;99.90;;;;;;7400811;19;20329;-93
2023/02/02 03:15:15;;;;;;;7.40;2.42;;;4.20;99.90;;;;;;7397907;19;20360;-86
2023/02/02 03:17:41;;;;;;;5.00;2.27;;;4.20;99.90;;;;;;7394797;19;20320;-88
2023/02/02 03:20:16;;;;;;;6.53;2.00;;;4.20;99.90;;;;;;7400417;19;20311;-86
2023/02/02 03:22:42;;;;;;;5.28;2.08;;;4.30;99.90;;;;;;7403218;19;20317;-85
2023/02/02 03:25:11;;;;;;;6.77;2.83;;;4.30;99.90;;;;;;7382036;19;20316;-89
2023/02/02 03:27:37;;;;;;;5.35;2.20;;;4.20;99.90;;;;;;7400648;19;20324;-89
2023/02/02 03:30:06;;;;;;;4.07;2.23;;;4.30;99.90;;;;;;7407218;19;20858;-87
2023/02/02 03:32:33;;;;;;;6.43;2.30;;;4.30;99.90;;;;;;7403550;19;20333;-84
2023/02/02 03:35:09;;;;;;;6.07;2.33;;;4.30;99.90;;;;;;7400987;19;20324;-86
2023/02/02 03:37:35;;;;;;;5.22;2.03;;;4.30;99.90;;;;;;7397398;19;20871;-89
2023/02/02 03:40:00;;;;;;;4.63;2.17;;;4.40;99.90;;;;;;7403687;19;20328;-85
2023/02/02 03:42:26;;;;;;;4.75;2.05;;;4.40;99.90;;;;;;7403862;19;20866;-86
2023/02/02 03:44:52;;;;;;;8.02;1.70;;;4.30;99.90;;;;;;7399491;19;20324;-86
2023/02/02 03:47:19;;;;;;;6.90;2.33;;;4.30;99.90;;;;;;7402990;19;20309;-88
2023/02/02 03:49:45;;;;;;;4.60;1.98;;;4.30;99.90;;;;;;7410545;19;20348;-87
2023/02/02 03:52:11;;;;;;;7.45;2.30;;;4.20;99.90;;;;;;7404710;19;20309;-89
2023/02/02 03:54:39;;;;;;;3.95;2.25;;;4.30;99.90;;;;;;7382825;19;20325;-91
2023/02/02 03:57:04;;;;;;;4.73;2.23;;;4.30;99.90;;;;;;7407825;19;20401;-87
2023/02/02 03:59:30;;;;;;;5.60;2.17;;;4.20;99.90;;;;;;7387540;19;20408;-83
2023/02/02 04:01:56;;;;;;;4.55;2.17;;;4.30;99.90;;;;;;7404013;19;20324;-86
2023/02/02 04:04:22;;;;;;;5.00;1.83;;;4.20;99.90;;;;;;7407742;19;20332;-82
2023/02/02 04:06:48;;;;;;;8.45;1.90;;;4.30;99.90;;;;;;7395357;19;20340;-85
2023/02/02 04:09:14;;;;;;;5.22;2.10;;;4.30;99.90;;;;;;7401864;19;20337;-89
2023/02/02 04:11:40;;;;;;;5.90;1.93;;;4.30;99.90;;;;;;7397337;19;20322;-90
2023/02/02 04:14:06;;;;;;;1.93;1.50;;;4.30;99.90;;;;;;7395729;19;20316;-89
2023/02/02 04:16:34;;;;;;;4.00;1.90;;;4.30;99.90;;;;;;7393710;19;20348;-90
2023/02/02 04:19:00;;;;;;;6.15;2.03;;;4.30;99.90;;;;;;7395427;19;20332;-90
2023/02/02 04:21:27;;;;;;;3.08;1.70;;;4.20;99.90;;;;;;7387277;19;20330;-89
2023/02/02 04:23:53;;;;;;;4.35;2.05;;;4.20;99.90;;;;;;7396185;19;20941;-88
2023/02/02 04:26:20;;;;;;;4.10;1.63;;;4.20;99.90;;;;;;7396038;19;20315;-85
2023/02/02 04:28:46;;;;;;;4.13;1.92;;;4.20;99.90;;;;;;7402171;19;20317;-87
2023/02/02 04:31:12;;;;;;;4.00;1.77;;;4.30;99.90;;;;;;7387856;19;20907;-87
2023/02/02 04:33:38;;;;;;;5.27;2.20;;;4.20;99.90;;;;;;7388679;19;20340;-91
2023/02/02 04:36:04;;;;;;;6.30;1.80;;;4.20;99.90;;;;;;7383434;19;20336;-90
2023/02/02 04:38:30;;;;;;;3.97;1.98;;;4.20;99.90;;;;;;7385783;19;20336;-85
2023/02/02 04:40:57;;;;;;;4.00;1.80;;;4.10;99.90;;;;;;7382958;19;20320;-90
2023/02/02 04:43:24;;;;;;;2.95;1.60;;;4.20;99.90;;;;;;7381566;19;21012;-89
2023/02/02 04:45:57;;;;;;;3.38;1.63;;;4.10;99.90;;;;;;7385800;19;20330;-82
2023/02/02 04:48:23;;;;;;;3.58;1.50;;;4.10;99.90;;;;;;7386355;19;20408;-86
2023/02/02 04:50:49;;;;;;;3.23;1.63;;;4.10;99.90;;;;;;7384478;19;20332;-88
2023/02/02 04:53:16;;;;;;;2.35;1.50;;;4.10;99.90;;;;;;7386467;19;20345;-83
2023/02/02 04:55:42;;;;;;;2.50;1.42;;;4.10;99.90;;;;;;7383657;19;20308;-82
2023/02/02 04:58:08;;;;;;;2.13;1.40;;;4.10;99.90;;;;;;7384359;19;20305;-89
2023/02/02 05:00:42;;;;;;;2.10;1.48;;;4.00;99.90;;;;;;7382975;19;20344;-89
2023/02/02 05:03:10;;;;;;;3.95;1.55;;;4.00;99.90;;;;;;7384958;19;20880;-80
2023/02/02 05:05:38;;;;;;;2.17;1.38;;;3.90;99.90;;;;;;7383177;19;20893;-83
2023/02/02 05:08:07;;;;;;;2.63;1.70;;;3.90;99.90;;;;;;7380283;19;20368;-84
2023/02/02 05:10:32;;;;;;;2.92;1.77;;;3.80;99.90;;;;;;7380126;19;20424;-82
2023/02/02 05:12:58;;;;;;;1.52;1.30;;;3.90;99.90;;;;;;7378183;19;20465;-84
2023/02/02 05:15:24;;;;;;;4.33;1.90;;;3.90;99.90;;;;;;7378509;19;20394;-85
2023/02/02 05:17:50;;;;;;;4.03;1.93;;;3.90;99.90;;;;;;7379628;19;20320;-76
2023/02/02 05:20:15;;;;;;;4.93;1.70;;;3.90;99.90;;;;;;7377307;19;20366;-78
2023/02/02 05:22:41;;;;;;;2.90;1.90;;;3.90;99.90;;;;;;7378161;19;20340;-82
2023/02/02 05:25:07;;;;;;;3.60;1.83;;;3.70;99.90;;;;;;7377270;19;20308;-84
2023/02/02 05:27:33;;;;;;;4.13;1.60;;;3.90;99.90;;;;;;7377046;19;20336;-83
2023/02/02 05:29:58;;;;;;;4.07;1.60;;;3.90;99.90;;;;;;7376538;19;20324;-83
2023/02/02 05:32:24;;;;;;;5.33;1.70;;;3.90;99.90;;;;;;7369035;19;20301;-78
2023/02/02 05:34:50;;;;;;;4.68;1.52;;;3.90;99.90;;;;;;7376582;19;20348;-77
2023/02/02 05:37:16;;;;;;;5.30;1.60;;;3.90;99.90;;;;;;7376092;19;20320;-77
2023/02/02 05:39:41;;;;;;;5.37;1.90;;;3.90;99.90;;;;;;7378870;19;20308;-80
2023/02/02 05:42:07;;;;;;;4.77;1.63;;;4.00;99.90;;;;;;7377308;19;20312;-77
2023/02/02 05:44:33;;;;;;;5.65;1.52;;;4.00;99.90;;;;;;7376882;19;20360;-79
2023/02/02 05:46:58;;;;;;;4.37;1.60;;;4.00;99.90;;;;;;7378959;19;20312;-77
2023/02/02 05:49:24;;;;;;;4.15;1.50;;;4.00;99.90;;;;;;7370236;19;20321;-77
2023/02/02 05:51:52;;;;;;;2.80;1.50;;;4.10;99.90;;;;;;7366113;19;20317;-78
2023/02/02 05:54:19;;;;;;;3.63;1.50;;;4.10;99.90;;;;;;7374132;19;20309;-83
2023/02/02 05:56:49;;;;;;;2.83;1.52;;;4.10;99.90;;;;;;7373421;19;20305;-80
2023/02/02 05:59:16;;;;;;;2.95;1.52;;;4.10;99.90;;;;;;7381021;19;20336;-78
2023/02/02 06:01:42;;;;;;;3.78;1.60;;;4.10;99.90;;;;;;7375250;19;20340;-78
2023/02/02 06:04:09;;;;;;;3.70;1.40;;;4.10;99.90;;;;;;7372691;19;20331;-83
2023/02/02 06:06:36;;;;;;;2.17;1.67;;;4.20;99.90;;;;;;7378215;19;20368;-81
2023/02/02 06:09:02;;;;;;;5.03;1.50;;;4.20;99.90;;;;;;7380360;19;20344;-83
2023/02/02 06:11:28;;;;;;;2.45;1.50;;;4.20;99.90;;;;;;7374102;19;20329;-76
2023/02/02 06:14:00;;;;;;;4.70;1.43;;;4.10;99.90;;;;;;7407432;19;20356;-93
2023/02/02 06:16:26;;;;;;;2.70;1.38;;;4.10;99.90;;;;;;7409008;19;20324;-91
2023/02/02 06:18:52;;;;;;;3.17;1.45;;;4.20;99.90;;;;;;7409980;19;20337;-88
2023/02/02 06:21:21;;;;;;;4.30;1.70;;;4.10;99.90;;;;;;7405858;19;20379;-90
2023/02/02 06:23:47;;;;;;;3.55;1.58;;;4.10;99.90;;;;;;7408264;19;20325;-88
2023/02/02 06:26:13;;;;;;;4.37;1.77;;;4.10;99.90;;;;;;7410931;19;20321;-89
2023/02/02 06:28:39;;;;;;;4.38;1.50;;;4.10;99.90;;;;;;7412161;19;20317;-90
2023/02/02 06:31:07;;;;;;;2.63;1.38;;;4.10;99.90;;;;;;7408618;19;20333;-87
2023/02/02 06:33:33;;;;;;;2.05;1.45;;;4.10;99.90;;;;;;7397144;19;20343;-85
2023/02/02 06:36:00;;;;;;;3.30;1.63;;;4.20;99.90;;;;;;7392971;19;20320;-81
2023/02/02 06:38:26;;;;;;;2.08;1.20;;;4.20;99.90;;;;;;7392836;19;20308;-85
2023/02/02 06:41:01;;;;;;;4.05;1.52;;;4.20;99.90;;;;;;7398000;19;20338;-91
2023/02/02 06:43:27;;;;;;;4.53;1.30;;;4.30;99.90;;;;;;7392739;19;20364;-87
2023/02/02 06:45:52;;;;;;;4.10;1.45;;;4.20;99.90;;;;;;7394336;19;20305;-90
2023/02/02 06:48:19;;;;;;;1.60;1.23;;;4.20;99.90;;;;;;7397195;19;20321;-89
2023/02/02 06:50:45;;;;;;;3.65;1.55;;;4.20;99.90;;;;;;7399865;19;20321;-88
2023/02/02 06:53:11;;;;;;;3.90;1.60;;;4.20;99.90;;;;;;7395538;19;20957;-87
2023/02/02 06:55:37;;;;;;;3.30;1.73;;;4.30;99.90;;;;;;7396590;19;20357;-83
2023/02/02 06:58:03;;;;;;;3.17;1.67;;;4.20;99.90;;;;;;7398090;19;20368;-83
2023/02/02 07:00:29;;;;;;;3.10;1.40;;;4.20;99.90;;;;;;7400721;19;20308;-89
2023/02/02 07:02:55;;;;;;;3.10;1.67;;;4.20;99.90;;;;;;7402598;19;21167;-79
2023/02/02 07:05:22;;;;;;;3.57;1.80;;;4.30;99.90;;;;;;7391398;19;20404;-78
2023/02/02 07:07:55;;;;;;;4.65;1.77;;;4.30;99.90;;;;;;7391014;19;20323;-93
2023/02/02 07:10:21;;;;;;;3.03;1.77;;;4.30;99.90;;;;;;7386285;19;20317;-88
2023/02/02 07:12:51;;;;;;;2.47;1.75;;;4.30;99.90;;;;;;7405745;19;20313;-91
2023/02/02 07:15:17;;;;;;;3.53;1.77;;;4.30;99.90;;;;;;7408300;19;20321;-86
2023/02/02 07:17:44;;;;;;;2.73;1.57;;;4.30;99.90;;;;;;7409781;19;20288;-86
2023/02/02 07:20:10;;;;;;;2.28;1.55;;;4.40;99.90;;;;;;7380280;19;20313;-92
2023/02/02 07:22:42;;;;;;;3.45;1.63;;;4.40;99.90;;;;;;7406607;19;20384;-92
2023/02/02 07:25:14;;;;;;;4.13;1.48;;;4.40;99.90;;;;;;7407807;19;20313;-87
2023/02/02 07:27:40;;;;;;;3.57;1.80;;;4.50;99.90;;;;;;7389692;19;20300;-89
2023/02/02 07:30:10;;;;;;;3.03;1.73;;;4.50;99.90;;;;;;7389795;19;20320;-93
2023/02/02 07:32:39;;;;;;;2.90;1.40;;;4.50;99.90;;;;;;7401315;19;20450;-94
2023/02/02 07:35:07;;;;;;;4.90;1.50;;;4.50;99.90;;;;;;7391500;19;20317;-92
2023/02/02 07:37:35;;;;;;;3.22;1.83;;;4.50;99.90;;;;;;7378942;19;20341;-87
2023/02/02 07:40:01;;;;;;;1.88;1.55;;;4.50;99.90;;;;;;7409398;19;20341;-95
2023/02/02 07:42:29;;;;;;;3.30;1.57;;;4.50;99.90;;;;;;7398010;19;20320;-90
2023/02/02 07:45:00;;;;;;;3.40;1.40;;;4.60;99.90;;;;;;7316113;19;20320;-85
2023/02/02 07:47:29;;;;;;;5.03;1.70;;;4.60;99.90;;;;;;7404871;19;20324;-93
2023/02/02 07:49:54;;;;;;;4.07;1.50;;;4.60;99.90;;;;;;7363561;19;20321;-81
2023/02/02 07:52:23;;;;;;;5.05;1.30;;;4.50;99.90;;;;;;7378854;19;20328;-91
2023/02/02 07:55:18;;;;;;;5.13;1.48;;;4.60;99.90;;;;;;7399837;19;20348;-93
2023/02/02 07:57:48;;;;;;;5.25;1.50;;;4.50;99.90;;;;;;7403906;19;20349;-81
2023/02/02 08:00:16;;;;;;;3.67;1.50;;;4.50;99.90;;;;;;7398038;19;20301;-80
2023/02/02 08:02:56;;;;;;;7.43;1.83;;;4.60;99.90;;;;;;7412538;19;20312;-90
2023/02/02 08:05:24;;;;;;;3.72;1.65;;;4.70;99.90;;;;;;7281745;19;2004141;-92
2023/02/02 08:07:56;;;;;;;4.15;1.80;;;4.70;99.90;;;;;;7386706;19;20374;-89
2023/02/02 08:10:22;;;;;;;5.88;1.70;;;4.70;99.90;;;;;;7386655;19;20830;-84
2023/02/02 08:12:48;;;;;;;3.00;1.40;;;4.80;99.90;;;;;;7393000;19;20312;-88
2023/02/02 08:15:17;;;;;;;4.38;1.73;;;4.80;99.90;;;;;;7403948;19;20312;-87
2023/02/02 08:17:48;;;;;;;4.47;1.75;;;4.90;99.90;;;;;;7392753;19;20493;-93
2023/02/02 08:20:16;;;;;;;3.60;1.70;;;4.90;99.90;;;;;;7400985;19;20362;-82
2023/02/02 08:22:44;;;;;;;3.05;1.50;;;4.90;99.90;;;;;;7385719;19;20378;-90
2023/02/02 08:25:11;;;;;;;3.92;1.58;;;4.90;99.90;;;;;;7397542;19;20308;-84
2023/02/02 08:27:37;;;;;;;4.35;1.80;;;4.90;99.90;;;;;;7363139;19;20312;-93
2023/02/02 08:30:03;;;;;;;8.00;2.00;;;4.80;99.90;;;;;;7401107;19;20388;-90
2023/02/02 08:32:35;;;;;;;2.08;1.40;;;4.90;99.90;;;;;;7399058;19;20316;-89
2023/02/02 08:35:02;;;;;;;3.03;1.50;;;4.90;99.90;;;;;;7373979;19;20651;-93
2023/02/02 08:37:33;;;;;;;5.40;1.67;;;4.90;99.90;;;;;;7407417;19;20312;-91
2023/02/02 08:39:59;;;;;;;4.82;1.60;;;4.90;99.90;;;;;;7380908;19;20313;-91
2023/02/02 08:42:30;;;;;;;4.35;1.75;;;4.90;99.90;;;;;;7340966;19;20292;-89
2023/02/02 08:44:56;;;;;;;4.22;1.63;;;4.90;99.90;;;;;;7377559;19;20443;-90
2023/02/02 08:47:25;;;;;;;7.82;1.88;;;4.90;99.90;;;;;;7399455;19;20933;-91
2023/02/02 08:49:58;;;;;;;4.95;1.80;;;4.90;99.90;;;;;;7407996;19;20440;-87
2023/02/02 08:52:57;;;;;;;2.40;1.80;;;4.90;99.90;;;;;;7381589;19;20327;-90
2023/02/02 08:55:30;;;;;;;3.58;1.67;;;4.90;99.90;;;;;;7394653;19;20373;-88
2023/02/02 08:57:57;;;;;;;3.47;1.70;;;5.00;99.90;;;;;;7397017;19;20312;-82
2023/02/02 09:00:23;;;;;;;3.35;1.63;;;4.90;99.90;;;;;;7394223;19;20324;-81
2023/02/02 09:02:54;;;;;;;4.73;1.70;;;5.00;99.90;;;;;;7384413;19;20941;-91
2023/02/02 09:05:40;;;;;;;2.28;1.60;;;5.00;99.90;;;;;;7365997;19;20440;-83
2023/02/02 09:08:08;;;;;;;5.00;1.60;;;5.00;99.90;;;;;;7400918;19;20333;-86
2023/02/02 09:10:36;;;;;;;4.40;1.70;;;5.00;99.90;;;;;;7377454;19;20332;-88
2023/02/02 09:13:02;;;;;;;5.50;1.87;;;5.10;99.90;;;;;;7372752;19;20316;-81
2023/02/02 09:15:30;;;;;;;5.00;2.10;;;5.10;99.90;;;;;;7398075;19;20866;-80
2023/02/02 09:17:58;;;;;;;7.75;1.80;;;5.10;99.90;;;;;;7354614;19;20328;-83
2023/02/02 09:20:25;;;;;;;4.18;1.60;;;5.10;99.90;;;;;;7391726;19;20325;-86
2023/02/02 09:22:51;;;;;;;3.33;1.50;;;5.20;99.90;;;;;;7395259;19;20317;-82
2023/02/02 09:25:18;;;;;;;5.63;1.90;;;5.30;99.90;;;;;;7344786;19;20334;-87
2023/02/02 09:27:50;;;;;;;2.38;1.65;;;5.30;99.90;;;;;;7272321;19;2004552;-85
2023/02/02 09:30:16;;;;;;;4.90;1.90;;;5.30;99.90;;;;;;7389921;19;20826;-86
2023/02/02 09:32:49;;;;;;;4.70;2.00;;;5.40;99.90;;;;;;7392461;19;20316;-87
2023/02/02 09:35:37;;;;;;;3.00;1.65;;;5.40;99.90;;;;;;7390383;19;20837;-80
2023/02/02 09:38:03;;;;;;;3.15;1.83;;;5.30;99.90;;;;;;7286264;19;2004221;-83
2023/02/02 09:40:32;;;;;;;3.38;2.08;;;5.20;99.90;;;;;;7312592;19;20328;-82
2023/02/02 09:43:19;;;;;;;3.38;2.03;;;5.10;99.90;;;;;;7335483;19;20355;-85
2023/02/02 09:46:41;;;;;;;2.25;1.48;;;5.00;99.90;;;;;;7395595;19;20308;-83
2023/02/02 09:49:11;;;;;;;5.68;1.98;;;5.20;99.90;;;;;;7293342;19;2004151;-89
2023/02/02 09:51:45;;;;;;;5.88;1.75;;;5.20;99.90;;;;;;7394908;19;20343;-90
2023/02/02 09:54:51;;;;;;;4.03;1.90;;;5.20;99.90;;;;;;7345559;19;20337;-88
2023/02/02 09:57:23;;;;;;;3.33;1.88;;;5.40;99.90;;;;;;7376244;19;20319;-87
2023/02/02 09:59:51;;;;;;;2.73;1.77;;;5.50;99.90;;;;;;7293645;19;2004025;-89
2023/02/02 10:02:26;;;;;;;5.45;1.90;;;5.60;99.90;;;;;;7365474;19;20316;-80
2023/02/02 10:04:59;;;;;;;4.63;1.73;;;5.60;99.90;;;;;;7286249;19;2004276;-82
2023/02/02 10:07:37;;;;;;;4.60;1.70;;;5.80;99.90;;;;;;7387915;19;20330;-81
2023/02/02 10:10:21;;;;;;;5.53;1.80;;;5.90;99.90;;;;;;7383966;19;20341;-81
2023/02/02 10:13:10;;;;;;;5.20;1.63;;;5.90;99.90;;;;;;7383225;19;20925;-82
2023/02/02 10:16:10;;;;;;;3.75;1.63;;;5.90;99.90;;;;;;7282376;19;2004501;-81
2023/02/02 10:19:00;;;;;;;6.40;1.95;;;6.00;99.90;;;;;;7281912;19;2005847;-80
2023/02/02 10:21:28;;;;;;;4.50;1.63;;;6.10;99.90;;;;;;7280070;19;2004436;-78
2023/02/02 10:23:54;;;;;;;5.13;1.75;;;6.10;99.90;;;;;;7382826;19;20333;-80
2023/02/02 10:26:39;;;;;;;6.88;1.83;;;6.20;99.90;;;;;;7383925;19;20308;-79
2023/02/02 10:29:22;;;;;;;4.85;1.70;;;6.00;99.90;;;;;;7382139;19;20329;-79
2023/02/02 10:32:15;;;;;;;3.40;1.50;;;6.00;99.90;;;;;;7278021;19;2004381;-86
2023/02/02 10:35:06;;;;;;;4.78;2.00;;;5.80;99.90;;;;;;7378143;19;20313;-81
2023/02/02 10:37:53;;;;;;;2.75;1.50;;;5.90;99.90;;;;;;7280513;19;2004365;-81
2023/02/02 10:40:40;;;;;;;6.13;1.70;;;5.90;99.90;;;;;;7281387;19;2004263;-84
2023/02/02 10:43:46;;;;;;;3.55;1.50;;;5.90;99.90;;;;;;7381750;19;20860;-81
2023/02/02 10:46:18;;;;;;;4.05;1.77;;;5.90;99.90;;;;;;7281180;19;2004296;-81
2023/02/02 10:48:45;;;;;;;3.20;1.70;;;5.90;99.90;;;;;;7381857;19;20904;-79
2023/02/02 10:51:22;;;;;;;4.80;1.70;;;5.90;99.90;;;;;;7382706;19;21106;-81
2023/02/02 10:53:52;;;;;;;2.38;1.60;;;5.90;99.90;;;;;;7285867;19;2004541;-87
2023/02/02 10:56:36;;;;;;;3.60;1.67;;;6.10;99.90;;;;;;7387926;19;20313;-85
2023/02/02 10:59:14;;;;;;;4.63;1.77;;;6.10;99.90;;;;;;7387892;19;20340;-80
2023/02/02 11:01:40;;;;;;;5.15;1.50;;;5.90;99.90;;;;;;7387516;19;20328;-80
2023/02/02 11:06:51;;;;;;;4.27;1.67;;;6.00;99.90;;;;;;7283878;19;2004396;-78
2023/02/02 11:09:19;;;;;;;3.72;1.48;;;6.30;99.90;;;;;;7389889;19;20338;-81
2023/02/02 11:11:45;;;;;;;3.40;1.52;;;6.20;99.90;;;;;;7389197;19;20877;-78
2023/02/02 11:14:15;;;;;;;5.07;1.80;;;6.20;99.90;;;;;;7386762;19;20300;-80
2023/02/02 11:16:42;;;;;;;2.03;1.42;;;6.20;99.90;;;;;;7388057;19;20304;-80
2023/02/02 11:19:28;;;;;;;5.38;1.80;;;6.10;99.90;;;;;;7388022;19;20342;-89
2023/02/02 11:21:58;;;;;;;4.03;1.63;;;6.30;99.90;;;;;;7286504;19;2004524;-84
2023/02/02 11:24:38;;;;;;;2.00;1.50;;;6.30;99.90;;;;;;7391838;19;20380;-79
2023/02/02 11:27:03;;;;;;;4.00;1.50;;;6.20;99.90;;;;;;7392774;19;20328;-80
2023/02/02 11:29:38;;;;;;;2.83;1.63;;;6.00;99.90;;;;;;7393968;19;20856;-81
2023/02/02 11:32:28;;;;;;;4.00;1.50;;;6.00;99.90;;;;;;7391100;19;20329;-82
2023/02/02 11:35:15;;;;;;;2.95;1.70;;;6.00;99.90;;;;;;7288616;19;2004214;-79
2023/02/02 11:38:29;;;;;;;8.27;1.70;;;5.90;99.90;;;;;;7389908;19;20323;-80
2023/02/02 11:41:05;;;;;;;3.10;1.58;;;5.90;99.90;;;;;;7185919;19;2004435;-78
2023/02/02 11:43:49;;;;;;;4.15;1.50;;;5.90;99.90;;;;;;7390989;19;20308;-82
2023/02/02 11:46:23;;;;;;;4.00;1.55;;;5.90;99.90;;;;;;7389737;19;20324;-80
2023/02/02 11:49:07;;;;;;;2.57;1.60;;;6.00;99.90;;;;;;7290406;19;2004465;-81
2023/02/02 11:51:32;;;;;;;3.17;1.63;;;6.10;99.90;;;;;;7391393;19;20356;-81
2023/02/02 11:54:28;;;;;;;5.68;1.70;;;6.30;99.90;;;;;;7387517;19;20313;-82
2023/02/02 11:56:55;;;;;;;3.33;1.50;;;6.50;99.90;;;;;;7282753;19;2011983;-81
2023/02/02 11:59:31;;;;;;;3.78;1.40;;;6.90;99.90;;;;;;7387398;19;20320;-79
2023/02/02 12:02:12;;;;;;;2.10;1.45;;;6.90;99.90;;;;;;7386806;19;20313;-80
2023/02/02 12:04:38;;;;;;;6.30;1.50;;;6.90;99.90;;;;;;7386966;19;20333;-79
2023/02/02 12:07:26;;;;;;;4.53;1.50;;;6.90;99.90;;;;;;7388966;19;20316;-81
2023/02/02 12:09:52;;;;;;;2.45;1.52;;;7.10;99.90;;;;;;7284818;19;2004238;-80
2023/02/02 12:12:57;;;;;;;2.47;1.30;;;7.10;99.90;;;;;;7388393;19;20339;-82
2023/02/02 12:15:48;;;;;;;1.65;1.27;;;6.90;99.90;;;;;;7183042;19;2004396;-80
2023/02/02 12:18:48;;;;;;;5.35;1.50;;;7.00;99.90;;;;;;7387851;19;20428;-80
2023/02/02 12:21:20;;;;;;;5.78;1.50;;;7.10;99.90;;;;;;7286492;19;2004403;-79
2023/02/02 12:24:08;;;;;;;3.25;1.52;;;6.90;99.90;;;;;;7387852;19;20308;-82
2023/02/02 12:26:35;;;;;;;1.50;1.20;;;6.80;99.90;;;;;;7283521;19;2004641;-78
2023/02/02 12:29:07;;;;;;;2.88;1.45;;;7.00;99.90;;;;;;7384361;19;20433;-83
2023/02/02 12:32:08;;;;;;;2.70;1.50;;;7.10;99.90;;;;;;7385607;19;20381;-80
2023/02/02 12:34:40;;;;;;;1.50;1.25;;;7.00;99.90;;;;;;7284124;19;2019121;-79
2023/02/02 12:37:28;;;;;;;3.83;1.50;;;7.00;99.90;;;;;;7387657;19;20329;-81
2023/02/02 12:40:18;;;;;;;3.10;1.50;;;6.70;99.90;;;;;;7285140;19;2004283;-78
2023/02/02 12:43:10;;;;;;;3.30;1.38;;;6.70;99.90;;;;;;7385641;19;20352;-78
2023/02/02 12:45:44;;;;;;;3.03;1.42;;;6.50;99.90;;;;;;7282736;19;2004459;-79
2023/02/02 12:48:38;;;;;;;1.42;1.20;;;6.60;99.90;;;;;;7386341;19;20352;-80
2023/02/02 12:51:27;;;;;;;2.97;1.42;;;6.60;99.90;;;;;;7282643;19;2004464;-79
2023/02/02 12:54:27;;;;;;;3.33;1.40;;;6.60;99.90;;;;;;7282936;19;2004323;-78
2023/02/02 12:56:59;;;;;;;1.70;1.33;;;6.50;99.90;;;;;;7284154;19;2004681;-79
2023/02/02 12:59:24;;;;;;;1.90;1.23;;;6.50;99.90;;;;;;7386265;19;20636;-81
2023/02/02 13:02:12;;;;;;;3.22;1.52;;;6.70;99.90;;;;;;7384887;19;20324;-82
2023/02/02 13:04:59;;;;;;;2.33;1.45;;;6.70;99.90;;;;;;7380855;19;20323;-80
2023/02/02 13:07:28;;;;;;;2.50;1.60;;;6.60;99.90;;;;;;7283335;19;2004323;-78
2023/02/02 13:10:17;;;;;;;2.38;1.30;;;6.60;99.90;;;;;;7386368;19;20317;-83
2023/02/02 13:12:58;;;;;;;3.30;1.25;;;6.50;99.90;;;;;;7383166;19;20323;-80
2023/02/02 13:15:30;;;;;;;4.65;1.45;;;6.50;99.90;;;;;;7279202;19;2004509;-78
2023/02/02 13:17:57;;;;;;;2.65;1.40;;;6.50;99.90;;;;;;7384149;19;20320;-81
2023/02/02 13:20:57;;;;;;;2.95;1.30;;;6.50;99.90;;;;;;7384275;19;20309;-79
2023/02/02 13:23:55;;;;;;;2.53;1.35;;;6.40;99.90;;;;;;7279957;19;2010205;-81
2023/02/02 13:26:31;;;;;;;2.38;1.40;;;6.40;99.90;;;;;;7276764;19;2004333;-79
2023/02/02 13:29:41;;;;;;;3.45;1.48;;;6.40;99.90;;;;;;7385107;19;20358;-79
2023/02/02 13:32:18;;;;;;;2.38;1.40;;;6.40;99.90;;;;;;7277701;19;2004629;-80